Time;durP1;ratioP1;P1;durP2;ratioP2;P2;SDS_P1;SDS_P2;PMS_P1;PMS_P2;Temp;Humidity;BMP_temperature;BMP_pressure;BME280_temperature;BME280_humidity;BME280_pressure;Samples;Min_cycle;Max_cycle;Signal;HPM_P1;HPM_P2
2021/04/03 00:00:26;;;;;;;9.18;6.43;;;5.70;40.10;;;;;;6252194;23;20238;-78
2021/04/03 00:02:53;;;;;;;15.27;7.30;;;5.70;39.90;;;;;;6248854;22;20256;-79
2021/04/03 00:05:21;;;;;;;8.38;5.63;;;5.80;39.90;;;;;;6249755;23;20188;-81
2021/04/03 00:07:48;;;;;;;10.70;6.50;;;5.80;40.00;;;;;;6249672;22;20256;-78
2021/04/03 00:10:18;;;;;;;10.02;6.80;;;5.80;39.80;;;;;;6245896;23;20205;-79
2021/04/03 00:12:44;;;;;;;12.85;6.25;;;5.90;39.90;;;;;;6245233;22;20213;-79
2021/04/03 00:15:12;;;;;;;9.43;6.35;;;5.90;39.30;;;;;;6246595;22;20178;-78
2021/04/03 00:17:39;;;;;;;13.68;5.53;;;5.90;39.50;;;;;;6246624;23;20276;-78
2021/04/03 00:20:08;;;;;;;9.20;5.25;;;5.90;39.60;;;;;;6244695;22;20174;-80
2021/04/03 00:22:35;;;;;;;10.18;6.65;;;6.00;39.20;;;;;;6244820;22;20193;-79
2021/04/03 00:25:01;;;;;;;10.75;5.80;;;6.00;39.30;;;;;;6244206;22;20178;-78
2021/04/03 00:27:28;;;;;;;10.60;6.40;;;6.00;39.10;;;;;;6243965;23;20539;-80
2021/04/03 00:29:55;;;;;;;8.48;6.35;;;6.00;38.90;;;;;;6244179;23;20256;-78
2021/04/03 00:32:21;;;;;;;9.50;6.30;;;6.00;38.80;;;;;;6243530;22;20225;-78
2021/04/03 00:34:48;;;;;;;7.85;6.03;;;6.00;38.80;;;;;;6244392;22;20256;-79
2021/04/03 00:37:14;;;;;;;7.10;5.50;;;6.00;38.60;;;;;;6244232;22;20264;-80
2021/04/03 00:39:41;;;;;;;14.30;6.20;;;6.00;38.80;;;;;;6245339;23;20444;-80
2021/04/03 00:42:16;;;;;;;7.28;5.25;;;6.00;38.40;;;;;;6244398;22;20706;-77
2021/04/03 00:44:48;;;;;;;5.90;5.30;;;6.00;38.60;;;;;;6245069;23;20190;-78
2021/04/03 00:47:15;;;;;;;9.60;5.88;;;6.00;38.90;;;;;;6244483;23;20196;-79
2021/04/03 00:49:42;;;;;;;7.93;5.35;;;6.10;38.70;;;;;;6244853;22;20555;-78
2021/04/03 00:52:09;;;;;;;9.10;5.88;;;6.00;38.40;;;;;;6243696;22;20238;-78
2021/04/03 00:54:36;;;;;;;6.80;5.57;;;6.00;38.50;;;;;;6244028;23;20178;-78
2021/04/03 00:57:03;;;;;;;8.65;5.13;;;6.00;38.70;;;;;;6244031;23;20706;-78
2021/04/03 00:59:29;;;;;;;6.93;5.07;;;6.10;38.60;;;;;;6251462;22;20205;-82
2021/04/03 01:01:57;;;;;;;11.45;5.53;;;6.10;38.80;;;;;;6263456;22;20252;-79
2021/04/03 01:04:24;;;;;;;12.73;5.95;;;6.00;38.60;;;;;;6259368;22;20185;-82
2021/04/03 01:06:50;;;;;;;7.07;5.50;;;6.00;38.80;;;;;;6273451;22;20178;-84
2021/04/03 01:09:16;;;;;;;9.50;5.50;;;6.10;38.80;;;;;;6271898;22;20185;-83
2021/04/03 01:11:55;;;;;;;8.40;5.35;;;6.10;38.20;;;;;;6263349;22;20169;-78
2021/04/03 01:14:30;;;;;;;9.43;6.47;;;6.00;38.30;;;;;;6262233;22;20169;-79
2021/04/03 01:17:08;;;;;;;13.98;5.50;;;6.00;38.80;;;;;;6246383;23;20165;-79
2021/04/03 01:20:07;;;;;;;7.65;5.30;;;5.90;38.60;;;;;;6246170;23;20189;-78
2021/04/03 01:22:54;;;;;;;10.02;5.35;;;5.90;38.60;;;;;;6245575;22;20244;-80
2021/04/03 01:25:29;;;;;;;7.15;4.60;;;5.90;38.80;;;;;;6245895;23;20246;-78
2021/04/03 01:28:16;;;;;;;9.65;5.70;;;5.80;38.80;;;;;;6246455;23;20197;-80
2021/04/03 01:30:48;;;;;;;7.78;5.15;;;5.70;39.00;;;;;;6246311;23;20643;-78
2021/04/03 01:33:17;;;;;;;6.78;5.25;;;5.70;38.80;;;;;;6246211;22;20272;-78
2021/04/03 01:35:47;;;;;;;11.07;5.50;;;5.50;39.10;;;;;;6248655;22;20559;-78
2021/04/03 01:38:21;;;;;;;8.32;5.25;;;5.40;39.90;;;;;;6248690;23;20170;-78
2021/04/03 01:40:49;;;;;;;12.18;5.43;;;5.30;40.40;;;;;;6261935;23;20189;-80
2021/04/03 01:43:22;;;;;;;6.90;5.10;;;5.30;40.40;;;;;;6259527;22;20213;-79
2021/04/03 01:45:51;;;;;;;10.73;5.95;;;5.20;40.40;;;;;;6262396;23;20158;-80
2021/04/03 01:48:19;;;;;;;7.93;5.60;;;5.20;40.80;;;;;;6251655;22;20174;-78
2021/04/03 01:50:46;;;;;;;5.70;4.80;;;5.30;40.50;;;;;;6260815;22;20174;-78
2021/04/03 01:53:14;;;;;;;9.82;6.00;;;5.20;41.50;;;;;;6259227;22;20201;-81
2021/04/03 01:55:41;;;;;;;7.45;4.97;;;5.10;41.20;;;;;;6246812;23;20174;-79
2021/04/03 01:58:10;;;;;;;8.18;6.07;;;5.00;41.40;;;;;;6254786;23;20182;-78
2021/04/03 02:00:36;;;;;;;9.00;5.63;;;5.00;41.80;;;;;;6245325;22;20205;-78
2021/04/03 02:03:06;;;;;;;10.07;5.65;;;4.90;41.80;;;;;;6244558;22;20198;-79
2021/04/03 02:05:35;;;;;;;7.10;5.05;;;5.00;42.10;;;;;;6245437;23;20178;-78
2021/04/03 02:08:03;;;;;;;7.15;5.05;;;4.90;42.10;;;;;;6247026;22;20224;-79
2021/04/03 02:10:31;;;;;;;7.97;5.25;;;4.90;42.40;;;;;;6250704;22;20174;-79
2021/04/03 02:13:00;;;;;;;4.90;4.40;;;4.90;42.20;;;;;;6247673;22;20229;-79
2021/04/03 02:15:27;;;;;;;7.05;5.75;;;5.00;42.20;;;;;;6245597;22;20209;-78
2021/04/03 02:17:56;;;;;;;10.60;5.38;;;5.00;41.90;;;;;;6247020;22;20174;-79
2021/04/03 02:20:24;;;;;;;9.73;5.85;;;5.00;42.20;;;;;;6247075;22;20185;-78
2021/04/03 02:22:51;;;;;;;7.72;5.38;;;4.90;42.00;;;;;;6249848;22;20194;-79
2021/04/03 02:25:18;;;;;;;8.00;5.25;;;4.90;42.00;;;;;;6248920;22;20174;-79
2021/04/03 02:27:46;;;;;;;7.55;5.45;;;4.90;42.00;;;;;;6255149;22;20205;-77
2021/04/03 02:30:15;;;;;;;8.20;5.35;;;4.90;42.10;;;;;;6261316;23;20247;-78
2021/04/03 02:32:44;;;;;;;7.03;5.50;;;4.90;42.30;;;;;;6255367;22;20247;-79
2021/04/03 02:35:12;;;;;;;10.02;5.68;;;5.00;42.70;;;;;;6246875;23;20202;-78
2021/04/03 02:37:40;;;;;;;6.80;4.70;;;4.90;43.10;;;;;;6246248;22;20174;-79
2021/04/03 02:40:09;;;;;;;8.60;5.75;;;4.90;43.40;;;;;;6247002;22;20193;-80
2021/04/03 02:42:41;;;;;;;10.40;5.50;;;5.00;43.60;;;;;;6246258;22;20244;-79
2021/04/03 02:45:10;;;;;;;9.60;5.25;;;5.00;43.90;;;;;;6246314;23;20158;-77
2021/04/03 02:47:42;;;;;;;5.70;5.10;;;5.00;44.00;;;;;;6257779;23;20174;-81
2021/04/03 02:50:13;;;;;;;8.13;5.70;;;5.10;44.00;;;;;;6268085;23;20154;-79
2021/04/03 02:52:41;;;;;;;11.45;5.55;;;5.20;44.00;;;;;;6268124;22;20186;-78
2021/04/03 02:55:09;;;;;;;8.82;5.80;;;5.20;44.30;;;;;;6266486;22;20162;-82
2021/04/03 02:57:38;;;;;;;9.25;5.68;;;5.30;44.10;;;;;;6271125;22;20172;-77
2021/04/03 03:00:07;;;;;;;8.38;6.20;;;5.30;43.90;;;;;;6272308;22;20158;-77
2021/04/03 03:02:35;;;;;;;12.88;5.90;;;5.40;43.40;;;;;;6270039;22;20214;-78
2021/04/03 03:05:05;;;;;;;8.00;5.18;;;5.40;43.40;;;;;;6255224;23;20200;-80
2021/04/03 03:07:34;;;;;;;6.60;5.72;;;5.40;43.20;;;;;;6252141;23;20158;-81
2021/04/03 03:10:04;;;;;;;6.55;5.10;;;5.50;42.70;;;;;;6252424;22;20193;-79
2021/04/03 03:12:31;;;;;;;7.55;5.38;;;5.50;42.90;;;;;;6252336;22;20201;-81
2021/04/03 03:15:00;;;;;;;8.45;5.78;;;5.50;41.70;;;;;;6253759;22;20184;-80
2021/04/03 03:17:27;;;;;;;7.95;5.40;;;5.60;41.90;;;;;;6261985;22;20189;-79
2021/04/03 03:19:55;;;;;;;9.23;6.05;;;5.70;41.70;;;;;;6267682;22;20192;-77
2021/04/03 03:22:22;;;;;;;8.15;5.60;;;5.70;41.40;;;;;;6265190;22;20197;-79
2021/04/03 03:24:49;;;;;;;11.10;5.00;;;5.80;41.50;;;;;;6268281;22;20182;-78
2021/04/03 03:27:18;;;;;;;7.45;5.07;;;5.80;41.20;;;;;;6269558;23;20193;-79
2021/04/03 03:29:46;;;;;;;10.15;5.78;;;5.80;41.00;;;;;;6270206;22;20187;-78
2021/04/03 03:32:12;;;;;;;10.23;5.88;;;5.90;40.70;;;;;;6270179;22;20257;-78
2021/04/03 03:34:39;;;;;;;7.80;5.72;;;5.90;40.70;;;;;;6270665;22;20166;-79
2021/04/03 03:37:06;;;;;;;7.55;6.05;;;5.90;40.40;;;;;;6268660;22;20241;-79
2021/04/03 03:39:32;;;;;;;9.82;6.88;;;5.90;40.10;;;;;;6261798;22;20177;-79
2021/04/03 03:42:01;;;;;;;11.85;6.50;;;6.00;40.30;;;;;;6254709;22;20269;-81
2021/04/03 03:44:29;;;;;;;13.18;6.47;;;6.00;40.00;;;;;;6258810;23;20343;-80
2021/04/03 03:46:55;;;;;;;13.95;6.65;;;5.90;39.60;;;;;;6256994;23;20174;-81
2021/04/03 03:49:22;;;;;;;11.23;6.25;;;6.00;39.80;;;;;;6251199;22;20241;-80
2021/04/03 03:51:48;;;;;;;7.18;5.60;;;6.00;40.30;;;;;;6252402;22;20201;-79
2021/04/03 03:54:15;;;;;;;9.15;5.85;;;6.00;40.30;;;;;;6252748;23;20554;-81
2021/04/03 03:56:41;;;;;;;8.85;5.50;;;6.00;40.30;;;;;;6254699;22;20162;-79
2021/04/03 03:59:08;;;;;;;8.88;6.40;;;5.90;40.70;;;;;;6258221;22;20188;-80
2021/04/03 04:01:35;;;;;;;13.27;5.97;;;5.90;41.10;;;;;;6256197;22;20721;-80
2021/04/03 04:04:01;;;;;;;10.73;7.47;;;6.00;41.70;;;;;;6257004;22;20219;-77
2021/04/03 04:06:28;;;;;;;8.05;6.35;;;6.00;41.90;;;;;;6268135;22;20178;-78
2021/04/03 04:08:55;;;;;;;8.85;6.45;;;6.00;42.10;;;;;;6269002;23;20178;-77
2021/04/03 04:11:22;;;;;;;8.45;6.00;;;5.90;42.70;;;;;;6267520;22;20200;-76
2021/04/03 04:13:48;;;;;;;8.13;6.10;;;5.90;43.00;;;;;;6265106;22;20202;-81
2021/04/03 04:16:15;;;;;;;9.13;5.82;;;5.90;43.40;;;;;;6252436;22;20177;-81
2021/04/03 04:18:42;;;;;;;6.55;5.75;;;5.90;44.80;;;;;;6255068;22;20178;-80
2021/04/03 04:21:08;;;;;;;10.52;6.18;;;5.90;44.70;;;;;;6263271;22;20202;-79
2021/04/03 04:23:35;;;;;;;11.40;6.57;;;5.80;43.80;;;;;;6260897;22;20573;-81
2021/04/03 04:26:01;;;;;;;6.88;5.80;;;5.80;43.00;;;;;;6267367;22;20201;-79
2021/04/03 04:28:28;;;;;;;8.52;6.15;;;5.70;42.70;;;;;;6267405;22;20161;-81
2021/04/03 04:30:54;;;;;;;11.60;6.50;;;5.70;42.50;;;;;;6270415;22;20186;-76
2021/04/03 04:33:21;;;;;;;10.23;6.38;;;5.80;42.60;;;;;;6265214;22;20213;-80
2021/04/03 04:35:48;;;;;;;9.55;5.90;;;5.70;41.70;;;;;;6254276;22;20189;-81
2021/04/03 04:38:15;;;;;;;8.55;6.38;;;5.80;41.90;;;;;;6271768;22;20178;-77
2021/04/03 04:40:41;;;;;;;10.25;6.90;;;5.80;42.30;;;;;;6261078;22;20186;-81
2021/04/03 04:43:07;;;;;;;9.18;6.60;;;5.80;42.10;;;;;;6254537;22;20327;-81
2021/04/03 04:45:34;;;;;;;9.98;6.40;;;5.80;41.70;;;;;;6253632;22;20483;-80
2021/04/03 04:48:00;;;;;;;14.32;5.95;;;5.80;42.00;;;;;;6253194;23;20189;-78
2021/04/03 04:50:27;;;;;;;7.60;5.85;;;5.80;42.10;;;;;;6254369;22;20245;-81
2021/04/03 04:52:54;;;;;;;10.68;7.82;;;5.70;42.50;;;;;;6250934;22;20205;-81
2021/04/03 04:55:21;;;;;;;13.10;8.18;;;5.60;42.90;;;;;;6253829;23;20192;-79
2021/04/03 04:57:47;;;;;;;12.27;6.47;;;5.50;43.50;;;;;;6256616;22;20221;-77
2021/04/03 05:00:14;;;;;;;10.40;6.40;;;5.50;43.90;;;;;;6257442;22;20182;-81
2021/04/03 05:02:41;;;;;;;9.52;6.65;;;5.50;44.00;;;;;;6268492;22;20277;-78
2021/04/03 05:05:08;;;;;;;8.60;5.90;;;5.50;44.10;;;;;;6260206;23;20636;-81
2021/04/03 05:07:34;;;;;;;10.90;7.03;;;5.50;43.80;;;;;;6253304;22;20213;-82
2021/04/03 05:10:02;;;;;;;8.68;5.78;;;5.40;43.90;;;;;;6263347;22;20264;-79
2021/04/03 05:12:28;;;;;;;10.13;6.15;;;5.40;44.30;;;;;;6250389;22;20531;-82
2021/04/03 05:14:55;;;;;;;7.03;5.88;;;5.40;44.50;;;;;;6250174;22;20524;-77
2021/04/03 05:17:22;;;;;;;8.85;5.65;;;5.40;44.40;;;;;;6249509;22;20238;-80
2021/04/03 05:19:49;;;;;;;9.25;5.55;;;5.40;44.60;;;;;;6262337;22;20182;-82
2021/04/03 05:22:16;;;;;;;9.23;5.93;;;5.40;44.80;;;;;;6267246;22;20210;-78
2021/04/03 05:24:42;;;;;;;7.40;5.00;;;5.50;44.60;;;;;;6255787;23;20182;-80
2021/04/03 05:27:10;;;;;;;8.60;5.90;;;5.60;44.80;;;;;;6253212;22;20185;-80
2021/04/03 05:29:36;;;;;;;9.07;6.15;;;5.70;44.10;;;;;;6252067;22;20205;-80
2021/04/03 05:32:04;;;;;;;10.80;6.20;;;5.60;44.20;;;;;;6251474;22;20201;-80
2021/04/03 05:34:31;;;;;;;7.10;5.55;;;5.70;43.80;;;;;;6253200;22;20212;-81
2021/04/03 05:36:57;;;;;;;9.02;5.22;;;5.80;43.80;;;;;;6255059;22;20182;-80
2021/04/03 05:39:23;;;;;;;7.40;5.68;;;5.80;43.60;;;;;;6260085;23;20170;-81
2021/04/03 05:41:50;;;;;;;7.60;5.43;;;5.90;43.80;;;;;;6252360;22;20237;-80
2021/04/03 05:44:22;;;;;;;7.57;4.78;;;6.00;43.80;;;;;;6251598;23;20623;-80
2021/04/03 05:46:49;;;;;;;8.95;5.53;;;6.40;42.80;;;;;;6254713;23;20216;-79
2021/04/03 05:49:17;;;;;;;7.10;4.95;;;6.80;41.50;;;;;;6255284;23;20174;-79
2021/04/03 05:51:44;;;;;;;6.53;4.75;;;7.20;39.50;;;;;;6252314;22;20503;-79
2021/04/03 05:54:10;;;;;;;12.02;4.95;;;7.60;38.40;;;;;;6254959;23;20233;-78
2021/04/03 05:56:37;;;;;;;9.98;4.80;;;7.50;38.30;;;;;;6255955;22;20182;-80
2021/04/03 05:59:04;;;;;;;6.18;3.72;;;7.60;38.40;;;;;;6254989;22;20177;-79
2021/04/03 06:01:32;;;;;;;8.02;4.57;;;7.50;38.30;;;;;;6249973;22;20259;-79
2021/04/03 06:04:00;;;;;;;5.18;4.68;;;7.50;38.30;;;;;;6252061;22;20204;-79
2021/04/03 06:06:27;;;;;;;9.65;4.60;;;7.20;38.10;;;;;;6251249;22;20213;-79
2021/04/03 06:08:53;;;;;;;6.53;5.03;;;7.00;39.00;;;;;;6250634;23;20623;-79
2021/04/03 06:11:21;;;;;;;9.40;4.93;;;7.00;38.90;;;;;;6251093;23;20178;-78
2021/04/03 06:14:04;;;;;;;5.55;4.82;;;6.80;39.50;;;;;;6251296;22;20197;-79
2021/04/03 06:16:32;;;;;;;6.18;5.18;;;6.60;40.60;;;;;;6252680;23;20584;-79
2021/04/03 06:19:10;;;;;;;6.47;4.53;;;6.50;41.10;;;;;;6256317;22;20197;-78
2021/04/03 06:21:37;;;;;;;9.82;5.00;;;6.60;40.40;;;;;;6251044;22;20205;-78
2021/04/03 06:24:14;;;;;;;9.88;5.68;;;6.70;40.60;;;;;;6253726;22;20189;-81
2021/04/03 06:26:41;;;;;;;9.02;5.57;;;6.80;40.50;;;;;;6249827;23;20193;-79
2021/04/03 06:29:22;;;;;;;6.20;4.85;;;6.60;40.90;;;;;;6246277;22;20230;-78
2021/04/03 06:31:53;;;;;;;11.57;4.85;;;6.80;40.80;;;;;;6245453;22;20228;-79
2021/04/03 06:34:38;;;;;;;11.45;6.45;;;6.90;40.40;;;;;;6248421;23;20177;-79
2021/04/03 06:37:07;;;;;;;6.50;5.40;;;7.20;39.40;;;;;;6249827;23;20185;-79
2021/04/03 06:39:52;;;;;;;7.53;5.25;;;7.40;38.90;;;;;;6250531;22;20178;-81
2021/04/03 06:42:38;;;;;;;7.95;5.50;;;7.50;38.30;;;;;;6254186;22;20202;-80
2021/04/03 06:45:34;;;;;;;9.18;5.10;;;7.50;38.30;;;;;;6229489;23;20189;-82
2021/04/03 06:48:03;;;;;;;8.48;5.40;;;7.30;38.20;;;;;;6187453;22;20200;-79
2021/04/03 06:50:32;;;;;;;6.38;5.03;;;7.40;38.20;;;;;;6260230;22;20213;-81
2021/04/03 06:53:01;;;;;;;10.52;6.13;;;7.30;38.30;;;;;;6254593;22;20313;-81
2021/04/03 06:55:28;;;;;;;11.07;5.75;;;7.30;39.20;;;;;;6253121;23;20181;-79
2021/04/03 06:57:56;;;;;;;8.90;5.70;;;7.30;39.00;;;;;;6256586;22;20186;-79
2021/04/03 07:00:24;;;;;;;8.95;5.80;;;7.30;38.80;;;;;;6252215;22;20189;-79
2021/04/03 07:02:55;;;;;;;10.80;6.10;;;7.30;38.30;;;;;;6253448;22;20249;-80
2021/04/03 07:05:24;;;;;;;8.38;5.45;;;7.30;38.10;;;;;;6253537;23;20155;-79
2021/04/03 07:07:51;;;;;;;14.68;5.20;;;7.40;38.20;;;;;;6253531;22;20189;-80
2021/04/03 07:10:18;;;;;;;8.63;4.93;;;7.50;38.30;;;;;;6252978;22;20174;-79
2021/04/03 07:12:49;;;;;;;9.00;5.00;;;7.50;38.30;;;;;;6252534;22;20531;-79
2021/04/03 07:15:16;;;;;;;8.85;5.05;;;7.40;38.20;;;;;;6254534;22;20252;-80
2021/04/03 07:17:45;;;;;;;8.10;4.80;;;7.30;38.10;;;;;;6256074;22;20220;-79
2021/04/03 07:20:13;;;;;;;6.60;5.13;;;7.50;38.30;;;;;;6259296;22;20211;-79
2021/04/03 07:22:43;;;;;;;14.40;5.35;;;7.70;38.20;;;;;;6256289;22;20202;-78
2021/04/03 07:25:11;;;;;;;4.60;4.07;;;7.70;36.90;;;;;;6267590;23;20181;-78
2021/04/03 07:27:40;;;;;;;8.90;4.30;;;7.70;36.30;;;;;;6270358;22;20559;-78
2021/04/03 07:30:08;;;;;;;8.18;4.88;;;7.70;36.40;;;;;;6271877;22;20177;-77
2021/04/03 07:32:38;;;;;;;8.02;4.90;;;7.80;36.00;;;;;;6271180;22;20202;-78
2021/04/03 07:35:24;;;;;;;7.60;3.53;;;7.90;35.20;;;;;;6271042;22;20193;-78
2021/04/03 07:37:53;;;;;;;6.97;4.20;;;7.90;33.10;;;;;;6263193;22;20169;-78
2021/04/03 07:40:43;;;;;;;7.00;4.18;;;7.80;34.40;;;;;;6254201;22;20188;-80
2021/04/03 07:43:36;;;;;;;6.82;4.22;;;7.80;34.00;;;;;;6252270;22;20201;-79
2021/04/03 07:46:04;;;;;;;6.68;4.88;;;7.60;35.10;;;;;;6254011;22;20217;-79
2021/04/03 07:48:48;;;;;;;13.02;4.95;;;7.80;35.70;;;;;;6257548;23;20177;-78
2021/04/03 07:51:17;;;;;;;8.95;4.90;;;8.10;34.70;;;;;;6256693;23;20222;-77
2021/04/03 07:53:46;;;;;;;8.60;5.40;;;8.00;34.70;;;;;;6256262;22;20218;-79
2021/04/03 07:56:14;;;;;;;7.78;5.32;;;8.00;34.30;;;;;;6253756;23;20591;-79
2021/04/03 07:58:48;;;;;;;7.85;4.90;;;8.20;34.20;;;;;;6257805;22;20205;-81
2021/04/03 08:01:16;;;;;;;9.75;5.05;;;8.60;33.40;;;;;;6256914;23;20186;-81
2021/04/03 08:03:52;;;;;;;8.00;5.50;;;8.50;33.20;;;;;;6250456;22;20194;-80
2021/04/03 08:06:19;;;;;;;9.85;5.10;;;8.70;32.70;;;;;;6249691;23;20208;-80
2021/04/03 08:08:46;;;;;;;7.68;4.70;;;8.70;31.90;;;;;;6251675;22;20209;-81
2021/04/03 08:11:14;;;;;;;8.30;4.32;;;8.80;31.90;;;;;;6256862;22;20178;-83
2021/04/03 08:13:43;;;;;;;7.38;4.75;;;8.90;31.50;;;;;;6265579;22;20228;-80
2021/04/03 08:16:11;;;;;;;9.55;3.78;;;8.90;30.30;;;;;;6269807;23;20211;-77
2021/04/03 08:18:41;;;;;;;6.15;3.50;;;8.30;30.60;;;;;;6270510;22;20197;-76
2021/04/03 08:21:08;;;;;;;4.40;3.72;;;8.20;31.50;;;;;;6267025;23;20177;-80
2021/04/03 08:23:37;;;;;;;3.42;3.13;;;8.30;31.60;;;;;;6262734;22;20205;-79
2021/04/03 08:26:05;;;;;;;5.40;3.22;;;8.20;31.70;;;;;;6266597;22;20166;-83
2021/04/03 08:28:32;;;;;;;8.75;3.13;;;8.30;31.30;;;;;;6259708;22;20228;-80
2021/04/03 08:31:11;;;;;;;4.15;3.15;;;8.40;30.90;;;;;;6263781;23;20204;-79
2021/04/03 08:33:37;;;;;;;7.43;3.35;;;8.70;30.90;;;;;;6260976;22;20481;-82
2021/04/03 08:36:11;;;;;;;3.65;2.90;;;8.80;29.60;;;;;;6260853;22;20189;-80
2021/04/03 08:38:38;;;;;;;3.75;3.08;;;8.80;29.60;;;;;;6264242;23;20165;-81
2021/04/03 08:41:05;;;;;;;4.95;3.10;;;8.80;30.10;;;;;;6264343;22;20177;-78
2021/04/03 08:43:33;;;;;;;3.75;3.00;;;9.00;29.20;;;;;;6263616;22;20280;-80
2021/04/03 08:46:05;;;;;;;4.15;3.30;;;9.10;29.80;;;;;;6264735;22;20246;-80
2021/04/03 08:48:34;;;;;;;4.35;3.00;;;9.30;30.00;;;;;;6265563;23;20229;-79
2021/04/03 08:51:02;;;;;;;6.43;3.78;;;8.90;29.80;;;;;;6267587;23;20186;-81
2021/04/03 08:53:36;;;;;;;6.93;3.30;;;8.80;30.70;;;;;;6266800;22;20220;-78
2021/04/03 08:56:03;;;;;;;5.65;2.80;;;8.40;29.40;;;;;;6267839;23;20599;-79
2021/04/03 08:58:31;;;;;;;4.75;2.70;;;8.80;29.60;;;;;;6267425;23;20185;-79
2021/04/03 09:00:58;;;;;;;5.00;3.25;;;8.60;29.50;;;;;;6266346;23;20173;-78
2021/04/03 09:03:25;;;;;;;6.43;3.17;;;8.70;29.60;;;;;;6265220;22;20208;-79
2021/04/03 09:05:51;;;;;;;7.10;3.83;;;8.90;29.00;;;;;;6265906;22;20247;-78
2021/04/03 09:08:21;;;;;;;4.53;2.75;;;8.60;29.50;;;;;;6263892;22;20182;-78
2021/04/03 09:10:53;;;;;;;3.85;3.30;;;8.80;29.60;;;;;;6264800;23;20181;-78
2021/04/03 09:13:20;;;;;;;4.60;3.08;;;8.60;29.50;;;;;;6266687;22;20201;-78
2021/04/03 09:15:48;;;;;;;3.47;3.17;;;8.80;29.00;;;;;;6272585;22;20185;-78
2021/04/03 09:18:15;;;;;;;4.75;3.33;;;8.90;28.20;;;;;;6272296;22;20165;-78
2021/04/03 09:20:49;;;;;;;5.07;2.58;;;8.90;28.30;;;;;;6267771;22;20178;-80
2021/04/03 09:23:16;;;;;;;5.25;2.75;;;9.10;27.20;;;;;;6271546;22;20252;-78
2021/04/03 09:25:44;;;;;;;5.45;2.70;;;9.50;26.60;;;;;;6260348;22;20174;-81
2021/04/03 09:28:12;;;;;;;8.10;2.85;;;10.00;25.40;;;;;;6261475;22;20224;-78
2021/04/03 09:30:42;;;;;;;5.70;2.75;;;10.00;25.00;;;;;;6259045;22;20580;-79
2021/04/03 09:33:28;;;;;;;3.60;2.55;;;9.90;26.60;;;;;;6260248;22;20218;-79
2021/04/03 09:36:10;;;;;;;3.47;2.17;;;9.80;26.80;;;;;;6266051;23;20166;-79
2021/04/03 09:38:37;;;;;;;5.57;2.60;;;9.80;26.40;;;;;;6268843;23;20184;-79
2021/04/03 09:41:20;;;;;;;5.03;2.80;;;9.90;26.40;;;;;;6269065;23;20189;-80
2021/04/03 09:43:46;;;;;;;6.45;3.13;;;9.90;26.40;;;;;;6266162;22;20240;-79
2021/04/03 09:46:13;;;;;;;4.07;3.13;;;10.00;25.30;;;;;;6268305;22;20189;-80
2021/04/03 09:48:41;;;;;;;7.88;2.95;;;9.80;25.80;;;;;;6266084;22;20193;-79
2021/04/03 09:51:08;;;;;;;4.95;3.03;;;9.90;25.80;;;;;;6263073;23;20591;-79
2021/04/03 09:53:35;;;;;;;3.95;3.10;;;10.10;24.00;;;;;;6255176;22;20205;-80
2021/04/03 09:56:02;;;;;;;3.78;2.95;;;10.00;24.80;;;;;;6261749;23;20729;-80
2021/04/03 09:58:28;;;;;;;4.05;2.90;;;9.90;25.50;;;;;;6266796;22;20170;-79
2021/04/03 10:00:55;;;;;;;2.88;2.10;;;10.40;23.60;;;;;;6269773;22;20196;-78
2021/04/03 10:03:21;;;;;;;2.97;2.67;;;10.40;23.00;;;;;;6268459;22;20202;-78
2021/04/03 10:05:49;;;;;;;5.43;2.28;;;10.60;22.60;;;;;;6269530;23;20174;-79
2021/04/03 10:08:15;;;;;;;2.35;2.13;;;10.90;22.30;;;;;;6266010;22;20186;-77
2021/04/03 10:10:42;;;;;;;2.22;2.00;;;10.70;22.70;;;;;;6267262;22;20162;-79
2021/04/03 10:13:09;;;;;;;3.65;2.15;;;10.40;22.70;;;;;;6265679;22;20228;-80
2021/04/03 10:15:36;;;;;;;3.80;2.60;;;10.30;23.00;;;;;;6258310;22;20186;-79
2021/04/03 10:18:03;;;;;;;5.25;2.65;;;10.00;23.60;;;;;;6259314;23;20182;-80
2021/04/03 10:20:29;;;;;;;3.97;2.72;;;10.00;24.00;;;;;;6265057;23;20189;-79
2021/04/03 10:22:57;;;;;;;7.72;3.13;;;10.20;23.70;;;;;;6261517;22;20198;-80
2021/04/03 10:25:23;;;;;;;3.53;2.13;;;10.20;22.90;;;;;;6262866;22;20193;-80
2021/04/03 10:27:49;;;;;;;5.03;2.20;;;10.30;21.90;;;;;;6261692;23;20687;-79
2021/04/03 10:30:17;;;;;;;3.20;2.55;;;10.50;22.00;;;;;;6259599;22;20182;-79
2021/04/03 10:32:44;;;;;;;7.28;2.63;;;10.40;23.10;;;;;;6255042;22;20201;-79
2021/04/03 10:35:11;;;;;;;4.00;2.60;;;10.50;22.80;;;;;;6257271;22;20182;-78
2021/04/03 10:37:37;;;;;;;4.50;2.63;;;10.60;22.10;;;;;;6267195;22;20181;-79
2021/04/03 10:40:06;;;;;;;3.25;2.35;;;10.70;22.20;;;;;;6263548;23;20365;-79
2021/04/03 10:42:33;;;;;;;2.58;2.38;;;11.00;22.40;;;;;;6253240;22;20244;-80
2021/04/03 10:44:59;;;;;;;3.22;2.10;;;10.80;22.30;;;;;;6254793;22;20209;-81
2021/04/03 10:47:27;;;;;;;1.83;1.20;;;10.70;22.20;;;;;;6257193;22;20193;-80
2021/04/03 10:49:53;;;;;;;4.80;2.78;;;11.00;22.40;;;;;;6255238;22;20178;-79
2021/04/03 10:52:20;;;;;;;7.65;2.55;;;11.10;22.50;;;;;;6252456;22;20198;-81
2021/04/03 10:54:46;;;;;;;6.00;2.20;;;11.10;22.50;;;;;;6253550;22;20174;-80
2021/04/03 10:57:13;;;;;;;5.90;2.55;;;11.20;21.90;;;;;;6255050;23;20189;-79
2021/04/03 10:59:41;;;;;;;2.97;2.17;;;11.00;22.40;;;;;;6254592;22;20242;-79
2021/04/03 11:02:08;;;;;;;4.30;2.25;;;10.70;22.20;;;;;;6260820;22;20212;-79
2021/04/03 11:04:34;;;;;;;2.25;1.83;;;11.10;22.50;;;;;;6264853;23;20575;-79
2021/04/03 11:07:01;;;;;;;4.65;2.80;;;11.40;22.70;;;;;;6259752;23;20181;-79
2021/04/03 11:09:28;;;;;;;3.38;1.80;;;11.30;22.60;;;;;;6269434;23;20185;-79
2021/04/03 11:11:54;;;;;;;3.63;2.10;;;11.30;21.10;;;;;;6269803;22;20185;-79
2021/04/03 11:14:21;;;;;;;4.20;2.55;;;10.90;22.00;;;;;;6268412;22;20213;-78
2021/04/03 11:16:48;;;;;;;2.50;1.90;;;10.50;22.00;;;;;;6270676;22;20166;-78
2021/04/03 11:19:14;;;;;;;3.47;2.30;;;10.60;22.10;;;;;;6270342;22;20189;-78
2021/04/03 11:21:41;;;;;;;3.63;2.25;;;10.80;22.30;;;;;;6270111;22;20228;-78
2021/04/03 11:24:08;;;;;;;5.00;2.13;;;10.80;22.30;;;;;;6269013;22;20184;-80
2021/04/03 11:26:35;;;;;;;3.95;1.83;;;10.80;22.30;;;;;;6268994;22;20177;-78
2021/04/03 11:29:01;;;;;;;3.50;1.83;;;10.90;22.30;;;;;;6263938;23;20181;-80
2021/04/03 11:31:28;;;;;;;2.97;2.45;;;11.30;22.60;;;;;;6259957;22;20174;-79
2021/04/03 11:33:57;;;;;;;2.60;2.20;;;11.30;22.60;;;;;;6256597;22;20182;-80
2021/04/03 11:36:24;;;;;;;4.28;2.30;;;11.40;22.40;;;;;;6255502;22;20173;-80
2021/04/03 11:38:50;;;;;;;4.32;2.30;;;11.00;22.10;;;;;;6254989;22;20178;-79
2021/04/03 11:41:17;;;;;;;3.83;2.00;;;11.00;22.00;;;;;;6254634;23;20539;-79
2021/04/03 11:43:43;;;;;;;2.70;2.13;;;11.00;21.50;;;;;;6254096;22;20547;-80
2021/04/03 11:46:10;;;;;;;4.07;2.65;;;11.30;21.30;;;;;;6257291;22;20170;-80
2021/04/03 11:48:38;;;;;;;6.20;2.10;;;12.00;20.40;;;;;;6254750;23;20220;-80
2021/04/03 11:51:04;;;;;;;2.35;2.00;;;12.30;19.90;;;;;;6258586;22;20185;-78
2021/04/03 11:53:32;;;;;;;7.20;2.65;;;11.80;20.40;;;;;;6260479;22;20194;-80
2021/04/03 11:55:58;;;;;;;4.15;2.05;;;11.50;20.60;;;;;;6258513;22;20188;-80
2021/04/03 11:58:25;;;;;;;3.35;1.98;;;11.90;19.40;;;;;;6254414;22;20216;-80
2021/04/03 12:00:58;;;;;;;3.83;1.95;;;12.00;19.00;;;;;;6266430;22;20182;-80
2021/04/03 12:03:24;;;;;;;3.90;1.90;;;11.70;19.40;;;;;;6256368;22;20269;-80
2021/04/03 12:05:52;;;;;;;5.93;2.28;;;11.50;19.20;;;;;;6261658;22;20174;-79
2021/04/03 12:08:18;;;;;;;3.25;2.13;;;11.70;18.90;;;;;;6263699;22;20640;-79
2021/04/03 12:10:44;;;;;;;4.45;1.85;;;11.90;18.50;;;;;;6262762;22;20228;-81
2021/04/03 12:13:20;;;;;;;6.13;1.90;;;12.10;17.90;;;;;;6270357;22;20213;-78
2021/04/03 12:15:46;;;;;;;3.83;2.08;;;12.20;18.80;;;;;;6267251;23;20177;-80
2021/04/03 12:18:15;;;;;;;3.40;2.42;;;12.10;18.80;;;;;;6272026;22;20234;-77
2021/04/03 12:20:41;;;;;;;2.92;2.15;;;12.20;18.30;;;;;;6270691;22;20228;-83
2021/04/03 12:23:09;;;;;;;2.75;1.80;;;12.20;17.90;;;;;;6265593;22;20206;-81
2021/04/03 12:25:35;;;;;;;4.78;1.80;;;12.10;18.30;;;;;;6264076;22;20181;-80
2021/04/03 12:28:02;;;;;;;6.70;2.42;;;12.20;18.30;;;;;;6251673;23;20174;-81
2021/04/03 12:30:28;;;;;;;3.90;2.00;;;12.00;19.20;;;;;;6250860;23;20174;-79
2021/04/03 12:32:54;;;;;;;3.15;1.92;;;12.40;18.60;;;;;;6248083;22;20263;-79
2021/04/03 12:35:21;;;;;;;6.10;2.20;;;12.70;18.10;;;;;;6250767;23;20182;-79
2021/04/03 12:37:47;;;;;;;3.95;2.08;;;12.50;18.20;;;;;;6250135;22;20220;-78
2021/04/03 12:40:15;;;;;;;6.50;2.00;;;12.10;18.80;;;;;;6251290;22;20231;-80
2021/04/03 12:42:42;;;;;;;6.47;2.28;;;11.90;18.90;;;;;;6250756;22;20198;-80
2021/04/03 12:45:09;;;;;;;6.93;2.22;;;11.80;18.60;;;;;;6251690;22;20264;-79
2021/04/03 12:47:37;;;;;;;3.08;1.85;;;11.70;18.20;;;;;;6251899;23;20178;-78
2021/04/03 12:50:06;;;;;;;4.25;1.88;;;11.40;18.80;;;;;;6251934;22;20185;-81
2021/04/03 12:52:33;;;;;;;3.40;1.85;;;11.90;18.70;;;;;;6248561;22;20739;-81
2021/04/03 12:55:00;;;;;;;2.38;1.48;;;12.10;17.80;;;;;;6255964;23;20181;-80
2021/04/03 12:57:27;;;;;;;2.25;1.58;;;12.20;17.10;;;;;;6256428;22;20698;-79
2021/04/03 12:59:53;;;;;;;5.40;1.98;;;12.80;16.70;;;;;;6254026;23;20200;-79